sensor_id;sensor_type;location;lat;lon;timestamp;pressure;altitude;pressure_sealevel;temperature;humidity
10921;BME280;5513;50.580;8.818;2023-03-01T00:01:50;100225.81;;;0.62;100.00
10921;BME280;5513;50.580;8.818;2023-03-01T00:04:18;100225.88;;;0.51;100.00
10921;BME280;5513;50.580;8.818;2023-03-01T00:06:46;100217.22;;;0.49;100.00
10921;BME280;5513;50.580;8.818;2023-03-01T00:09:17;100214.63;;;0.44;100.00
10921;BME280;5513;50.580;8.818;2023-03-01T00:11:45;100213.75;;;0.50;100.00
10921;BME280;5513;50.580;8.818;2023-03-01T00:14:14;100211.94;;;0.60;100.00
10921;BME280;5513;50.580;8.818;2023-03-01T00:16:46;100205.88;;;0.53;100.00
10921;BME280;5513;50.580;8.818;2023-03-01T00:19:16;100209.41;;;0.46;100.00
10921;BME280;5513;50.580;8.818;2023-03-01T00:21:45;100201.56;;;0.47;100.00
10921;BME280;5513;50.580;8.818;2023-03-01T00:24:14;100198.91;;;0.60;100.00
10921;BME280;5513;50.580;8.818;2023-03-01T00:26:43;100201.56;;;0.50;100.00
10921;BME280;5513;50.580;8.818;2023-03-01T00:29:12;100200.78;;;0.35;100.00
10921;BME280;5513;50.580;8.818;2023-03-01T00:31:40;100190.31;;;0.44;100.00
10921;BME280;5513;50.580;8.818;2023-03-01T00:34:10;100190.38;;;0.33;100.00
10921;BME280;5513;50.580;8.818;2023-03-01T00:36:38;100195.53;;;0.42;100.00
10921;BME280;5513;50.580;8.818;2023-03-01T00:39:10;100190.28;;;0.47;100.00
10921;BME280;5513;50.580;8.818;2023-03-01T00:41:40;100189.41;;;0.49;100.00
10921;BME280;5513;50.580;8.818;2023-03-01T00:44:09;100184.22;;;0.45;100.00
10921;BME280;5513;50.580;8.818;2023-03-01T00:46:37;100193.75;;;0.49;100.00
10921;BME280;5513;50.580;8.818;2023-03-01T00:49:06;100189.38;;;0.54;100.00
10921;BME280;5513;50.580;8.818;2023-03-01T00:51:36;100183.34;;;0.44;100.00
10921;BME280;5513;50.580;8.818;2023-03-01T00:54:05;100186.00;;;0.38;100.00
10921;BME280;5513;50.580;8.818;2023-03-01T00:56:34;100188.69;;;0.29;100.00
10921;BME280;5513;50.580;8.818;2023-03-01T00:59:02;100184.38;;;0.20;100.00
10921;BME280;5513;50.580;8.818;2023-03-01T01:01:31;100180.03;;;0.21;100.00
10921;BME280;5513;50.580;8.818;2023-03-01T01:04:01;100174.88;;;0.12;100.00
10921;BME280;5513;50.580;8.818;2023-03-01T01:06:31;100181.81;;;0.13;100.00
10921;BME280;5513;50.580;8.818;2023-03-01T01:09:03;100168.78;;;0.13;100.00
10921;BME280;5513;50.580;8.818;2023-03-01T01:11:34;100162.69;;;0.20;100.00
10921;BME280;5513;50.580;8.818;2023-03-01T01:14:03;100166.19;;;0.11;100.00
10921;BME280;5513;50.580;8.818;2023-03-01T01:16:32;100162.59;;;0.27;100.00
10921;BME280;5513;50.580;8.818;2023-03-01T01:19:01;100171.28;;;0.31;100.00
10921;BME280;5513;50.580;8.818;2023-03-01T01:21:29;100167.78;;;0.35;100.00
10921;BME280;5513;50.580;8.818;2023-03-01T01:23:58;100165.19;;;0.32;100.00
10921;BME280;5513;50.580;8.818;2023-03-01T01:26:31;100163.53;;;0.19;100.00
10921;BME280;5513;50.580;8.818;2023-03-01T01:29:02;100173.06;;;0.18;100.00
10921;BME280;5513;50.580;8.818;2023-03-01T01:31:32;100172.22;;;0.18;100.00
10921;BME280;5513;50.580;8.818;2023-03-01T01:34:05;100164.41;;;0.18;100.00
10921;BME280;5513;50.580;8.818;2023-03-01T01:36:34;100177.47;;;0.12;100.00
10921;BME280;5513;50.580;8.818;2023-03-01T01:39:04;100170.56;;;0.05;100.00
10921;BME280;5513;50.580;8.818;2023-03-01T01:41:34;100168.81;;;0.10;100.00
10921;BME280;5513;50.580;8.818;2023-03-01T01:44:15;100162.75;;;0.05;100.00
10921;BME280;5513;50.580;8.818;2023-03-01T01:46:46;100167.06;;;0.07;100.00
10921;BME280;5513;50.580;8.818;2023-03-01T01:49:24;100174.88;;;0.12;100.00
10921;BME280;5513;50.580;8.818;2023-03-01T01:52:00;100166.19;;;0.08;100.00
10921;BME280;5513;50.580;8.818;2023-03-01T01:54:37;100171.44;;;0.05;100.00
10921;BME280;5513;50.580;8.818;2023-03-01T01:57:14;100171.34;;;0.22;100.00
10921;BME280;5513;50.580;8.818;2023-03-01T01:59:56;100163.66;;;-0.06;100.00
10921;BME280;5513;50.580;8.818;2023-03-01T02:02:26;100164.56;;;-0.13;100.00
10921;BME280;5513;50.580;8.818;2023-03-01T02:05:03;100160.19;;;-0.06;100.00
10921;BME280;5513;50.580;8.818;2023-03-01T02:07:38;100152.34;;;0.05;100.00
10921;BME280;5513;50.580;8.818;2023-03-01T02:10:09;100161.00;;;0.05;100.00
10921;BME280;5513;50.580;8.818;2023-03-01T02:12:39;100155.03;;;-0.14;100.00
10921;BME280;5513;50.580;8.818;2023-03-01T02:15:08;100150.66;;;-0.10;100.00
10921;BME280;5513;50.580;8.818;2023-03-01T02:17:37;100143.66;;;0.04;100.00
10921;BME280;5513;50.580;8.818;2023-03-01T02:20:12;100144.56;;;-0.03;100.00
10921;BME280;5513;50.580;8.818;2023-03-01T02:22:45;100142.00;;;-0.08;100.00
10921;BME280;5513;50.580;8.818;2023-03-01T02:25:27;100141.06;;;-0.01;100.00
10921;BME280;5513;50.580;8.818;2023-03-01T02:27:59;100139.44;;;-0.21;100.00
10921;BME280;5513;50.580;8.818;2023-03-01T02:30:34;100143.75;;;-0.14;100.00
10921;BME280;5513;50.580;8.818;2023-03-01T02:33:04;100138.53;;;-0.13;100.00
10921;BME280;5513;50.580;8.818;2023-03-01T02:35:33;100135.97;;;-0.19;100.00
10921;BME280;5513;50.580;8.818;2023-03-01T02:38:03;100130.81;;;-0.31;100.00
10921;BME280;5513;50.580;8.818;2023-03-01T02:40:36;100126.28;;;0.05;100.00
10921;BME280;5513;50.580;8.818;2023-03-01T02:43:08;100130.81;;;-0.34;100.00
10921;BME280;5513;50.580;8.818;2023-03-01T02:45:47;100132.56;;;-0.36;100.00
10921;BME280;5513;50.580;8.818;2023-03-01T02:48:16;100123.09;;;-0.52;100.00
10921;BME280;5513;50.580;8.818;2023-03-01T02:50:55;100123.97;;;-0.60;100.00
10921;BME280;5513;50.580;8.818;2023-03-01T02:53:34;100122.25;;;-0.56;100.00
10921;BME280;5513;50.580;8.818;2023-03-01T02:56:07;100114.44;;;-0.62;100.00
10921;BME280;5513;50.580;8.818;2023-03-01T02:58:39;100110.97;;;-0.63;100.00
10921;BME280;5513;50.580;8.818;2023-03-01T03:01:14;100120.53;;;-0.57;100.00
10921;BME280;5513;50.580;8.818;2023-03-01T03:03:42;100110.16;;;-0.80;100.00
10921;BME280;5513;50.580;8.818;2023-03-01T03:06:11;100104.97;;;-0.81;100.00
10921;BME280;5513;50.580;8.818;2023-03-01T03:08:40;100103.22;;;-0.73;100.00
10921;BME280;5513;50.580;8.818;2023-03-01T03:11:08;100099.75;;;-0.78;100.00
10921;BME280;5513;50.580;8.818;2023-03-01T03:13:37;100092.84;;;-0.84;100.00
10921;BME280;5513;50.580;8.818;2023-03-01T03:16:16;100091.06;;;-0.70;100.00
10921;BME280;5513;50.580;8.818;2023-03-01T03:18:45;100085.91;;;-0.88;100.00
10921;BME280;5513;50.580;8.818;2023-03-01T03:21:15;100084.19;;;-0.83;100.00
10921;BME280;5513;50.580;8.818;2023-03-01T03:23:44;100083.34;;;-0.87;100.00
10921;BME280;5513;50.580;8.818;2023-03-01T03:26:13;100073.78;;;-0.88;100.00
10921;BME280;5513;50.580;8.818;2023-03-01T03:28:41;100083.34;;;-0.87;100.00
10921;BME280;5513;50.580;8.818;2023-03-01T03:31:10;100071.22;;;-1.01;100.00
10921;BME280;5513;50.580;8.818;2023-03-01T03:33:39;100088.56;;;-1.09;100.00
10921;BME280;5513;50.580;8.818;2023-03-01T03:36:08;100076.44;;;-1.09;100.00
10921;BME280;5513;50.580;8.818;2023-03-01T03:38:39;100077.31;;;-1.13;100.00
10921;BME280;5513;50.580;8.818;2023-03-01T03:41:08;100081.63;;;-1.04;100.00
10921;BME280;5513;50.580;8.818;2023-03-01T03:43:38;100081.59;;;-0.94;100.00
10921;BME280;5513;50.580;8.818;2023-03-01T03:46:07;100079.03;;;-1.01;100.00
10921;BME280;5513;50.580;8.818;2023-03-01T03:48:37;100072.94;;;-1.00;100.00
10921;BME280;5513;50.580;8.818;2023-03-01T03:51:10;100077.28;;;-1.07;100.00
10921;BME280;5513;50.580;8.818;2023-03-01T03:53:39;100077.28;;;-0.96;100.00
10921;BME280;5513;50.580;8.818;2023-03-01T03:56:08;100079.84;;;-0.89;100.00
10921;BME280;5513;50.580;8.818;2023-03-01T03:58:37;100079.03;;;-0.95;100.00
10921;BME280;5513;50.580;8.818;2023-03-01T04:01:06;100084.16;;;-0.80;100.00
10921;BME280;5513;50.580;8.818;2023-03-01T04:03:34;100078.09;;;-0.79;100.00
10921;BME280;5513;50.580;8.818;2023-03-01T04:06:03;100082.41;;;-0.78;100.00
10921;BME280;5513;50.580;8.818;2023-03-01T04:08:34;100088.50;;;-0.74;100.00
10921;BME280;5513;50.580;8.818;2023-03-01T04:11:04;100091.06;;;-0.73;100.00
10921;BME280;5513;50.580;8.818;2023-03-01T04:13:46;100083.25;;;-0.67;100.00
10921;BME280;5513;50.580;8.818;2023-03-01T04:16:15;100075.44;;;-0.65;100.00
10921;BME280;5513;50.580;8.818;2023-03-01T04:18:44;100072.00;;;-0.67;100.00
10921;BME280;5513;50.580;8.818;2023-03-01T04:21:12;100071.16;;;-0.74;100.00
10921;BME280;5513;50.580;8.818;2023-03-01T04:23:42;100065.06;;;-0.73;100.00
10921;BME280;5513;50.580;8.818;2023-03-01T04:26:10;100060.72;;;-0.72;100.00
10921;BME280;5513;50.580;8.818;2023-03-01T04:28:40;100072.03;;;-0.84;100.00
10921;BME280;5513;50.580;8.818;2023-03-01T04:31:13;100059.06;;;-0.92;100.00
10921;BME280;5513;50.580;8.818;2023-03-01T04:33:45;100062.53;;;-0.91;100.00
10921;BME280;5513;50.580;8.818;2023-03-01T04:36:16;100059.06;;;-0.93;100.00
10921;BME280;5513;50.580;8.818;2023-03-01T04:38:46;100060.75;;;-0.80;100.00
10921;BME280;5513;50.580;8.818;2023-03-01T04:41:16;100062.53;;;-0.93;100.00
10921;BME280;5513;50.580;8.818;2023-03-01T04:43:45;100062.53;;;-0.93;100.00
10921;BME280;5513;50.580;8.818;2023-03-01T04:46:16;100062.53;;;-0.97;100.00
10921;BME280;5513;50.580;8.818;2023-03-01T04:48:46;100061.69;;;-0.99;100.00
10921;BME280;5513;50.580;8.818;2023-03-01T04:51:15;100066.88;;;-0.93;100.00
10921;BME280;5513;50.580;8.818;2023-03-01T04:53:46;100068.59;;;-0.92;100.00
10921;BME280;5513;50.580;8.818;2023-03-01T04:56:15;100064.25;;;-0.85;100.00
10921;BME280;5513;50.580;8.818;2023-03-01T04:58:45;100067.72;;;-0.85;100.00
10921;BME280;5513;50.580;8.818;2023-03-01T05:01:14;100064.31;;;-1.04;100.00
10921;BME280;5513;50.580;8.818;2023-03-01T05:03:46;100068.63;;;-1.01;100.00
10921;BME280;5513;50.580;8.818;2023-03-01T05:06:15;100061.69;;;-1.02;100.00
10921;BME280;5513;50.580;8.818;2023-03-01T05:08:45;100061.69;;;-1.02;100.00
10921;BME280;5513;50.580;8.818;2023-03-01T05:11:14;100056.50;;;-1.07;100.00
10921;BME280;5513;50.580;8.818;2023-03-01T05:13:43;100057.38;;;-1.11;100.00
10921;BME280;5513;50.580;8.818;2023-03-01T05:16:12;100058.28;;;-1.15;100.00
10921;BME280;5513;50.580;8.818;2023-03-01T05:18:41;100060.00;;;-1.16;100.00
10921;BME280;5513;50.580;8.818;2023-03-01T05:21:12;100061.72;;;-1.10;100.00
10921;BME280;5513;50.580;8.818;2023-03-01T05:23:45;100054.78;;;-1.12;100.00
10921;BME280;5513;50.580;8.818;2023-03-01T05:26:16;100056.50;;;-1.16;100.00
10921;BME280;5513;50.580;8.818;2023-03-01T05:29:05;100052.19;;;-1.14;100.00
10921;BME280;5513;50.580;8.818;2023-03-01T05:31:36;100053.00;;;-1.00;100.00
10921;BME280;5513;50.580;8.818;2023-03-01T05:34:05;100050.41;;;-0.97;100.00
10921;BME280;5513;50.580;8.818;2023-03-01T05:36:33;100048.69;;;-1.01;100.00
10921;BME280;5513;50.580;8.818;2023-03-01T05:39:03;100050.41;;;-0.92;100.00
10921;BME280;5513;50.580;8.818;2023-03-01T05:41:31;100056.47;;;-0.93;100.00
10921;BME280;5513;50.580;8.818;2023-03-01T05:43:59;100042.59;;;-0.92;100.00
10921;BME280;5513;50.580;8.818;2023-03-01T05:46:27;100050.47;;;-1.15;100.00
10921;BME280;5513;50.580;8.818;2023-03-01T05:48:56;100053.00;;;-0.98;100.00
10921;BME280;5513;50.580;8.818;2023-03-01T05:51:24;100056.47;;;-0.93;100.00
10921;BME280;5513;50.580;8.818;2023-03-01T05:53:53;100050.47;;;-1.06;100.00
10921;BME280;5513;50.580;8.818;2023-03-01T05:56:22;100051.28;;;-0.96;100.00
10921;BME280;5513;50.580;8.818;2023-03-01T05:58:51;100044.34;;;-0.96;100.00
10921;BME280;5513;50.580;8.818;2023-03-01T06:01:19;100053.03;;;-1.09;100.00
10921;BME280;5513;50.580;8.818;2023-03-01T06:03:47;100048.69;;;-1.02;100.00
10921;BME280;5513;50.580;8.818;2023-03-01T06:06:17;100053.91;;;-1.04;100.00
10921;BME280;5513;50.580;8.818;2023-03-01T06:08:45;100049.56;;;-1.02;100.00
10921;BME280;5513;50.580;8.818;2023-03-01T06:11:13;100048.66;;;-0.98;100.00
10921;BME280;5513;50.580;8.818;2023-03-01T06:13:43;100047.78;;;-0.97;100.00
10921;BME280;5513;50.580;8.818;2023-03-01T06:16:12;100053.88;;;-0.98;100.00
10921;BME280;5513;50.580;8.818;2023-03-01T06:18:41;100061.69;;;-1.01;100.00
10921;BME280;5513;50.580;8.818;2023-03-01T06:21:10;100056.50;;;-1.02;100.00
10921;BME280;5513;50.580;8.818;2023-03-01T06:23:38;100060.88;;;-1.13;100.00
10921;BME280;5513;50.580;8.818;2023-03-01T06:26:07;100062.63;;;-1.29;100.00
10921;BME280;5513;50.580;8.818;2023-03-01T06:28:36;100047.03;;;-1.37;100.00
10921;BME280;5513;50.580;8.818;2023-03-01T06:31:06;100060.03;;;-1.38;100.00
10921;BME280;5513;50.580;8.818;2023-03-01T06:33:35;100052.22;;;-1.37;100.00
10921;BME280;5513;50.580;8.818;2023-03-01T06:36:05;100050.47;;;-1.20;100.00
10921;BME280;5513;50.580;8.818;2023-03-01T06:38:33;100054.81;;;-1.29;100.00
10921;BME280;5513;50.580;8.818;2023-03-01T06:41:02;100056.53;;;-1.22;100.00
10921;BME280;5513;50.580;8.818;2023-03-01T06:43:30;100047.84;;;-1.12;100.00
10921;BME280;5513;50.580;8.818;2023-03-01T06:45:58;100041.75;;;-1.02;100.00
10921;BME280;5513;50.580;8.818;2023-03-01T06:48:28;100042.59;;;-0.92;100.00
10921;BME280;5513;50.580;8.818;2023-03-01T06:50:58;100039.09;;;-0.82;100.00
10921;BME280;5513;50.580;8.818;2023-03-01T06:53:27;100033.94;;;-0.94;100.00
10921;BME280;5513;50.580;8.818;2023-03-01T06:55:56;100038.22;;;-0.81;100.00
10921;BME280;5513;50.580;8.818;2023-03-01T06:58:24;100026.94;;;-0.80;100.00
10921;BME280;5513;50.580;8.818;2023-03-01T07:00:53;100022.63;;;-0.81;100.00
10921;BME280;5513;50.580;8.818;2023-03-01T07:03:21;100030.44;;;-0.89;100.00
10921;BME280;5513;50.580;8.818;2023-03-01T07:05:51;100020.06;;;-0.85;100.00
10921;BME280;5513;50.580;8.818;2023-03-01T07:08:19;100028.72;;;-0.91;100.00
10921;BME280;5513;50.580;8.818;2023-03-01T07:10:47;100026.94;;;-0.74;100.00
10921;BME280;5513;50.580;8.818;2023-03-01T07:13:18;100035.59;;;-0.78;100.00
10921;BME280;5513;50.580;8.818;2023-03-01T07:15:46;100035.50;;;-0.55;100.00
10921;BME280;5513;50.580;8.818;2023-03-01T07:18:15;100037.22;;;-0.52;100.00
10921;BME280;5513;50.580;8.818;2023-03-01T07:20:43;100027.59;;;-0.40;100.00
10921;BME280;5513;50.580;8.818;2023-03-01T07:23:13;100030.16;;;-0.29;100.00
10921;BME280;5513;50.580;8.818;2023-03-01T07:25:42;100031.00;;;-0.24;100.00
10921;BME280;5513;50.580;8.818;2023-03-01T07:28:11;100037.09;;;-0.30;100.00
10921;BME280;5513;50.580;8.818;2023-03-01T07:30:39;100041.31;;;-0.12;100.00
10921;BME280;5513;50.580;8.818;2023-03-01T07:33:08;100042.19;;;-0.13;100.00
10921;BME280;5513;50.580;8.818;2023-03-01T07:35:36;100041.25;;;0.01;100.00
10921;BME280;5513;50.580;8.818;2023-03-01T07:38:04;100039.50;;;-0.01;100.00
10921;BME280;5513;50.580;8.818;2023-03-01T07:40:34;100037.78;;;0.00;100.00
10921;BME280;5513;50.580;8.818;2023-03-01T07:43:03;100033.44;;;0.01;100.00
10921;BME280;5513;50.580;8.818;2023-03-01T07:45:31;100036.06;;;0.01;100.00
10921;BME280;5513;50.580;8.818;2023-03-01T07:47:59;100029.97;;;0.00;100.00
10921;BME280;5513;50.580;8.818;2023-03-01T07:50:28;100041.16;;;0.13;100.00
10921;BME280;5513;50.580;8.818;2023-03-01T07:52:56;100036.78;;;0.19;100.00
10921;BME280;5513;50.580;8.818;2023-03-01T07:55:24;100035.03;;;0.21;100.00
10921;BME280;5513;50.580;8.818;2023-03-01T07:57:54;100036.75;;;0.21;100.00
10921;BME280;5513;50.580;8.818;2023-03-01T08:00:23;100033.19;;;0.33;100.00
10921;BME280;5513;50.580;8.818;2023-03-01T08:02:52;100036.63;;;0.35;100.00
10921;BME280;5513;50.580;8.818;2023-03-01T08:05:20;100032.28;;;0.37;100.00
10921;BME280;5513;50.580;8.818;2023-03-01T08:07:48;100035.59;;;0.54;100.00
10921;BME280;5513;50.580;8.818;2023-03-01T08:10:18;100033.00;;;0.52;100.00
10921;BME280;5513;50.580;8.818;2023-03-01T08:12:47;100031.84;;;0.82;100.00
10921;BME280;5513;50.580;8.818;2023-03-01T08:15:17;100032.69;;;0.83;100.00
10921;BME280;5513;50.580;8.818;2023-03-01T08:17:45;100033.50;;;0.90;100.00
10921;BME280;5513;50.580;8.818;2023-03-01T08:20:16;100031.75;;;0.90;100.00
10921;BME280;5513;50.580;8.818;2023-03-01T08:22:45;100034.28;;;0.99;100.00
10921;BME280;5513;50.580;8.818;2023-03-01T08:25:13;100036.06;;;0.94;100.00
10921;BME280;5513;50.580;8.818;2023-03-01T08:27:42;100030.97;;;0.83;100.00
10921;BME280;5513;50.580;8.818;2023-03-01T08:30:11;100033.34;;;1.06;100.00
10921;BME280;5513;50.580;8.818;2023-03-01T08:32:41;100023.00;;;0.94;100.00
10921;BME280;5513;50.580;8.818;2023-03-01T08:35:09;100015.13;;;1.02;100.00
10921;BME280;5513;50.580;8.818;2023-03-01T08:37:41;100016.69;;;1.17;100.00
10921;BME280;5513;50.580;8.818;2023-03-01T08:40:10;100011.59;;;1.07;100.00
10921;BME280;5513;50.580;8.818;2023-03-01T08:42:40;100013.91;;;1.29;100.00
10921;BME280;5513;50.580;8.818;2023-03-01T08:45:10;100007.84;;;1.28;100.00
10921;BME280;5513;50.580;8.818;2023-03-01T08:47:41;100012.09;;;1.37;100.00
10921;BME280;5513;50.580;8.818;2023-03-01T08:50:09;100007.28;;;1.69;100.00
10921;BME280;5513;50.580;8.818;2023-03-01T08:52:38;99997.75;;;1.64;100.00
10921;BME280;5513;50.580;8.818;2023-03-01T08:55:07;99987.97;;;1.80;100.00
10921;BME280;5513;50.580;8.818;2023-03-01T08:57:36;99986.06;;;1.91;100.00
10921;BME280;5513;50.580;8.818;2023-03-01T09:00:06;99980.63;;;2.05;100.00
10921;BME280;5513;50.580;8.818;2023-03-01T09:02:36;99982.75;;;1.80;100.00
10921;BME280;5513;50.580;8.818;2023-03-01T09:05:08;99976.38;;;1.97;100.00
10921;BME280;5513;50.580;8.818;2023-03-01T09:07:36;99979.41;;;2.25;100.00
10921;BME280;5513;50.580;8.818;2023-03-01T09:10:08;99976.44;;;2.45;100.00
10921;BME280;5513;50.580;8.818;2023-03-01T09:12:36;99973.88;;;2.41;100.00
10921;BME280;5513;50.580;8.818;2023-03-01T09:15:07;99969.22;;;2.58;100.00
10921;BME280;5513;50.580;8.818;2023-03-01T09:17:36;99962.28;;;2.57;100.00
10921;BME280;5513;50.580;8.818;2023-03-01T09:20:08;99968.84;;;2.78;100.00
10921;BME280;5513;50.580;8.818;2023-03-01T09:22:36;99963.50;;;2.84;100.00
10921;BME280;5513;50.580;8.818;2023-03-01T09:25:06;99970.28;;;2.94;100.00
10921;BME280;5513;50.580;8.818;2023-03-01T09:27:34;99960.59;;;2.98;100.00
10921;BME280;5513;50.580;8.818;2023-03-01T09:30:03;99951.59;;;3.12;100.00
10921;BME280;5513;50.580;8.818;2023-03-01T09:32:32;99955.56;;;3.30;100.00
10921;BME280;5513;50.580;8.818;2023-03-01T09:35:01;99957.97;;;3.41;100.00
10921;BME280;5513;50.580;8.818;2023-03-01T09:37:33;99947.63;;;3.72;100.00
10921;BME280;5513;50.580;8.818;2023-03-01T09:40:02;99954.75;;;3.67;100.00
10921;BME280;5513;50.580;8.818;2023-03-01T09:42:33;99948.91;;;3.54;100.00
10921;BME280;5513;50.580;8.818;2023-03-01T09:45:05;99948.38;;;3.79;100.00
10921;BME280;5513;50.580;8.818;2023-03-01T09:47:35;99947.44;;;4.17;99.94
10921;BME280;5513;50.580;8.818;2023-03-01T09:50:09;99950.09;;;4.15;98.44
10921;BME280;5513;50.580;8.818;2023-03-01T09:52:43;99945.31;;;3.95;100.00
10921;BME280;5513;50.580;8.818;2023-03-01T09:55:17;99945.94;;;4.07;99.00
10921;BME280;5513;50.580;8.818;2023-03-01T09:57:51;99951.63;;;4.22;97.50
10921;BME280;5513;50.580;8.818;2023-03-01T10:00:31;99933.88;;;4.66;95.45
10921;BME280;5513;50.580;8.818;2023-03-01T10:03:09;99933.75;;;4.71;92.25
10921;BME280;5513;50.580;8.818;2023-03-01T10:05:46;99928.34;;;4.77;92.58
10921;BME280;5513;50.580;8.818;2023-03-01T10:08:37;99939.53;;;4.82;92.02
10921;BME280;5513;50.580;8.818;2023-03-01T10:11:19;99936.09;;;5.11;89.72
10921;BME280;5513;50.580;8.818;2023-03-01T10:13:55;99934.78;;;5.26;87.09
10921;BME280;5513;50.580;8.818;2023-03-01T10:16:29;99932.38;;;5.47;84.26
10921;BME280;5513;50.580;8.818;2023-03-01T10:19:03;99930.03;;;5.38;83.35
10921;BME280;5513;50.580;8.818;2023-03-01T10:21:36;99928.13;;;5.43;83.15
10921;BME280;5513;50.580;8.818;2023-03-01T10:24:12;99926.13;;;5.80;83.86
10921;BME280;5513;50.580;8.818;2023-03-01T10:26:48;99912.69;;;5.61;81.58
10921;BME280;5513;50.580;8.818;2023-03-01T10:29:18;99905.47;;;5.67;79.62
10921;BME280;5513;50.580;8.818;2023-03-01T10:31:52;99910.06;;;5.61;78.88
10921;BME280;5513;50.580;8.818;2023-03-01T10:34:32;99901.88;;;5.98;76.24
10921;BME280;5513;50.580;8.818;2023-03-01T10:37:09;99904.41;;;6.01;75.14
10921;BME280;5513;50.580;8.818;2023-03-01T10:39:56;99888.69;;;6.24;74.83
10921;BME280;5513;50.580;8.818;2023-03-01T10:42:29;99899.41;;;6.20;73.32
10921;BME280;5513;50.580;8.818;2023-03-01T10:45:15;99901.53;;;6.58;70.26
10921;BME280;5513;50.580;8.818;2023-03-01T10:47:46;99904.06;;;6.85;68.36
10921;BME280;5513;50.580;8.818;2023-03-01T10:50:20;99900.94;;;6.99;67.13
10921;BME280;5513;50.580;8.818;2023-03-01T10:53:00;99895.72;;;6.97;65.95
10921;BME280;5513;50.580;8.818;2023-03-01T10:55:33;99883.69;;;6.90;63.27
10921;BME280;5513;50.580;8.818;2023-03-01T10:58:16;99884.22;;;7.00;63.20
10921;BME280;5513;50.580;8.818;2023-03-01T11:00:48;99874.84;;;7.60;62.56
10921;BME280;5513;50.580;8.818;2023-03-01T11:03:23;99868.41;;;7.67;60.38
10921;BME280;5513;50.580;8.818;2023-03-01T11:06:03;99880.66;;;7.68;58.99
10921;BME280;5513;50.580;8.818;2023-03-01T11:08:35;99872.19;;;7.60;56.59
10921;BME280;5513;50.580;8.818;2023-03-01T11:11:19;99863.25;;;8.26;53.64
10921;BME280;5513;50.580;8.818;2023-03-01T11:13:56;99859.16;;;8.19;53.94
10921;BME280;5513;50.580;8.818;2023-03-01T11:16:31;99858.00;;;8.47;52.26
10921;BME280;5513;50.580;8.818;2023-03-01T11:19:15;99854.13;;;8.35;54.14
10921;BME280;5513;50.580;8.818;2023-03-01T11:21:57;99854.50;;;8.46;55.15
10921;BME280;5513;50.580;8.818;2023-03-01T11:24:37;99855.44;;;7.83;53.34
10921;BME280;5513;50.580;8.818;2023-03-01T11:27:17;99846.44;;;8.88;52.19
10921;BME280;5513;50.580;8.818;2023-03-01T11:29:50;99848.59;;;9.18;52.02
10921;BME280;5513;50.580;8.818;2023-03-01T11:32:23;99839.31;;;9.45;51.60
10921;BME280;5513;50.580;8.818;2023-03-01T11:34:57;99839.56;;;9.22;52.01
10921;BME280;5513;50.580;8.818;2023-03-01T11:37:33;99836.44;;;9.50;51.61
10921;BME280;5513;50.580;8.818;2023-03-01T11:40:11;99849.63;;;9.33;52.15
10921;BME280;5513;50.580;8.818;2023-03-01T11:42:50;99838.22;;;8.95;51.02
10921;BME280;5513;50.580;8.818;2023-03-01T11:45:24;99838.44;;;8.90;50.46
10921;BME280;5513;50.580;8.818;2023-03-01T11:48:11;99839.25;;;8.32;52.00
10921;BME280;5513;50.580;8.818;2023-03-01T11:50:47;99837.34;;;8.75;51.43
10921;BME280;5513;50.580;8.818;2023-03-01T11:53:33;99826.50;;;9.00;50.53
10921;BME280;5513;50.580;8.818;2023-03-01T11:56:11;99820.06;;;8.87;50.40
10921;BME280;5513;50.580;8.818;2023-03-01T11:58:54;99816.03;;;8.99;49.54
10921;BME280;5513;50.580;8.818;2023-03-01T12:01:35;99813.97;;;9.23;48.85
10921;BME280;5513;50.580;8.818;2023-03-01T12:07:36;99798.19;;;9.74;47.68
10921;BME280;5513;50.580;8.818;2023-03-01T12:10:25;99794.06;;;9.52;47.06
10921;BME280;5513;50.580;8.818;2023-03-01T12:13:05;99795.09;;;9.66;46.58
10921;BME280;5513;50.580;8.818;2023-03-01T12:16:03;99786.63;;;9.94;45.98
10921;BME280;5513;50.580;8.818;2023-03-01T12:18:50;99774.06;;;9.63;46.30
10921;BME280;5513;50.580;8.818;2023-03-01T12:21:33;99772.06;;;9.51;46.45
10921;BME280;5513;50.580;8.818;2023-03-01T12:24:31;99762.09;;;9.73;45.85
10921;BME280;5513;50.580;8.818;2023-03-01T12:27:15;99758.53;;;9.57;46.05
10921;BME280;5513;50.580;8.818;2023-03-01T12:29:54;99756.31;;;10.35;45.89
10921;BME280;5513;50.580;8.818;2023-03-01T12:32:40;99749.50;;;9.96;45.22
10921;BME280;5513;50.580;8.818;2023-03-01T12:35:32;99757.72;;;10.07;44.03
10921;BME280;5513;50.580;8.818;2023-03-01T12:38:14;99756.63;;;10.28;44.52
10921;BME280;5513;50.580;8.818;2023-03-01T12:41:01;99751.47;;;10.43;44.26
10921;BME280;5513;50.580;8.818;2023-03-01T12:43:44;99756.16;;;10.69;44.59
10921;BME280;5513;50.580;8.818;2023-03-01T12:46:22;99736.72;;;11.02;45.25
10921;BME280;5513;50.580;8.818;2023-03-01T12:49:04;99740.72;;;10.93;44.76
10921;BME280;5513;50.580;8.818;2023-03-01T12:51:35;99727.53;;;11.53;44.76
10921;BME280;5513;50.580;8.818;2023-03-01T12:54:14;99735.09;;;10.83;45.94
10921;BME280;5513;50.580;8.818;2023-03-01T12:56:43;99728.28;;;11.55;45.16
10921;BME280;5513;50.580;8.818;2023-03-01T12:59:26;99714.47;;;11.64;44.51
10921;BME280;5513;50.580;8.818;2023-03-01T13:02:03;99718.31;;;10.67;45.04
10921;BME280;5513;50.580;8.818;2023-03-01T13:04:47;99710.78;;;12.11;44.79
10921;BME280;5513;50.580;8.818;2023-03-01T13:07:29;99702.59;;;12.98;43.78
10921;BME280;5513;50.580;8.818;2023-03-01T13:10:19;99702.72;;;12.13;43.64
10921;BME280;5513;50.580;8.818;2023-03-01T13:12:52;99709.16;;;11.50;43.45
10921;BME280;5513;50.580;8.818;2023-03-01T13:15:26;99705.00;;;12.33;43.64
10921;BME280;5513;50.580;8.818;2023-03-01T13:17:57;99701.75;;;12.42;42.94
10921;BME280;5513;50.580;8.818;2023-03-01T13:20:31;99695.53;;;12.00;43.07
10921;BME280;5513;50.580;8.818;2023-03-01T13:23:06;99694.53;;;11.43;43.48
10921;BME280;5513;50.580;8.818;2023-03-01T13:26:06;99693.69;;;12.44;43.08
10921;BME280;5513;50.580;8.818;2023-03-01T13:28:50;99693.53;;;13.42;40.78
10921;BME280;5513;50.580;8.818;2023-03-01T13:34:49;99686.53;;;13.66;40.03
10921;BME280;5513;50.580;8.818;2023-03-01T13:37:40;99682.06;;;13.54;39.62